createdAt,value
2022-12-26T00:00:40.685Z,4.94
2022-12-26T00:01:40.585Z,4.94
2022-12-26T00:02:40.755Z,4.94
2022-12-26T00:03:40.748Z,4.93
2022-12-26T00:04:51.514Z,4.93
2022-12-26T00:05:40.556Z,4.93
2022-12-26T00:06:40.550Z,4.94
2022-12-26T00:07:40.511Z,4.90
2022-12-26T00:08:40.582Z,4.86
2022-12-26T00:09:40.475Z,4.80
2022-12-26T00:10:40.478Z,4.80
2022-12-26T00:11:40.476Z,4.78
2022-12-26T00:12:40.450Z,4.74
2022-12-26T00:13:41.673Z,4.67
2022-12-26T00:14:40.424Z,4.67
2022-12-26T00:15:40.397Z,4.67
2022-12-26T00:16:40.466Z,4.68
2022-12-26T00:17:40.390Z,4.68
2022-12-26T00:18:40.386Z,4.70
2022-12-26T00:19:40.364Z,4.70
2022-12-26T00:20:40.388Z,4.70
2022-12-26T00:21:40.329Z,4.70
2022-12-26T00:22:40.307Z,4.68
2022-12-26T00:23:40.281Z,4.67
2022-12-26T00:24:40.321Z,4.62
2022-12-26T00:25:40.257Z,4.62
2022-12-26T00:26:40.262Z,4.60
2022-12-26T00:27:40.272Z,4.60
2022-12-26T00:28:40.253Z,4.59
2022-12-26T00:29:40.271Z,4.58
2022-12-26T00:30:40.241Z,4.56
2022-12-26T00:31:40.214Z,4.55
2022-12-26T00:32:40.179Z,4.50
2022-12-26T00:33:40.162Z,4.50
2022-12-26T00:34:40.151Z,4.49
2022-12-26T00:35:40.155Z,4.49
2022-12-26T00:36:40.134Z,4.48
2022-12-26T00:37:40.101Z,4.45
2022-12-26T00:38:40.100Z,4.42
2022-12-26T00:39:40.086Z,4.41
2022-12-26T00:40:40.126Z,4.38
2022-12-26T00:41:40.087Z,4.37
2022-12-26T00:42:40.044Z,4.35
2022-12-26T00:43:40.035Z,4.35
2022-12-26T00:44:40.038Z,4.35
2022-12-26T00:45:39.991Z,4.32
2022-12-26T00:46:40.165Z,4.31
2022-12-26T00:47:39.967Z,4.26
2022-12-26T00:48:39.979Z,4.23
2022-12-26T00:50:15.049Z,4.26
2022-12-26T00:50:39.950Z,4.24
2022-12-26T00:51:39.953Z,4.23
2022-12-26T00:52:39.950Z,4.23
2022-12-26T00:53:39.904Z,4.20
2022-12-26T00:54:39.908Z,4.16
2022-12-26T00:55:39.874Z,4.14
2022-12-26T00:56:39.902Z,4.13
2022-12-26T00:57:39.848Z,4.10
2022-12-26T00:58:39.861Z,4.05
2022-12-26T00:59:39.835Z,3.99
2022-12-26T01:00:39.904Z,3.98
2022-12-26T01:01:40.027Z,3.95
2022-12-26T01:02:40.171Z,3.92
2022-12-26T01:03:39.763Z,3.91
2022-12-26T01:04:39.766Z,3.88
2022-12-26T01:05:39.764Z,3.92
2022-12-26T01:06:39.748Z,3.94
2022-12-26T01:08:19.626Z,3.94
2022-12-26T01:08:39.748Z,3.95
2022-12-26T01:09:39.721Z,3.95
2022-12-26T01:10:39.699Z,3.96
2022-12-26T01:11:39.657Z,3.96
2022-12-26T01:12:39.680Z,3.96
2022-12-26T01:13:39.653Z,3.96
2022-12-26T01:14:39.631Z,3.98
2022-12-26T01:15:39.634Z,3.99
2022-12-26T01:16:39.658Z,3.99
2022-12-26T01:17:39.577Z,3.99
2022-12-26T01:18:39.563Z,3.98
2022-12-26T01:19:39.557Z,3.96
2022-12-26T01:20:39.560Z,3.94
2022-12-26T01:21:39.530Z,3.92
2022-12-26T01:22:39.525Z,3.88
2022-12-26T01:23:39.531Z,3.88
2022-12-26T01:24:39.503Z,3.88
2022-12-26T01:26:19.308Z,3.86
2022-12-26T01:26:39.506Z,3.88
2022-12-26T01:27:39.471Z,3.86
2022-12-26T01:28:39.464Z,3.84
2022-12-26T01:29:39.415Z,3.84
2022-12-26T01:30:39.418Z,3.83
2022-12-26T01:31:39.503Z,3.84
2022-12-26T01:32:39.389Z,3.84
2022-12-26T01:33:39.387Z,3.83
2022-12-26T01:34:39.368Z,3.80
2022-12-26T01:35:39.345Z,3.81
2022-12-26T01:36:39.357Z,3.78
2022-12-26T01:37:39.313Z,3.77
2022-12-26T01:38:39.323Z,3.78
2022-12-26T01:39:39.324Z,3.73
2022-12-26T01:40:39.281Z,3.70
2022-12-26T01:41:39.257Z,3.73
2022-12-26T01:42:39.294Z,3.74
2022-12-26T01:43:39.274Z,3.77
2022-12-26T01:44:39.228Z,3.74
2022-12-26T01:45:39.296Z,3.73
2022-12-26T01:46:39.218Z,3.69
2022-12-26T01:47:39.177Z,3.69
2022-12-26T01:48:39.189Z,3.69
2022-12-26T01:49:39.187Z,3.70
2022-12-26T01:50:39.174Z,3.69
2022-12-26T01:51:39.139Z,3.70
2022-12-26T01:52:39.121Z,3.70
2022-12-26T01:53:39.140Z,3.66
2022-12-26T01:54:42.687Z,3.65
2022-12-26T01:55:39.073Z,3.62
2022-12-26T01:56:39.115Z,3.60
2022-12-26T01:57:39.048Z,3.56
2022-12-26T01:58:39.083Z,3.56
2022-12-26T01:59:39.055Z,3.56
2022-12-26T02:04:17.317Z,3.56
2022-12-26T02:05:18.276Z,3.56
2022-12-26T02:06:18.260Z,3.58
2022-12-26T02:07:18.270Z,3.56
2022-12-26T02:08:18.222Z,3.56
2022-12-26T02:09:18.246Z,3.56
2022-12-26T02:10:18.204Z,3.56
2022-12-26T02:11:18.183Z,3.56
2022-12-26T02:12:34.205Z,3.56
2022-12-26T02:13:18.159Z,3.53
2022-12-26T02:14:18.178Z,3.50
2022-12-26T02:15:18.153Z,3.45
2022-12-26T02:16:18.227Z,3.47
2022-12-26T02:17:18.102Z,3.47
2022-12-26T02:18:18.124Z,3.47
2022-12-26T02:19:18.084Z,3.42
2022-12-26T02:20:18.077Z,3.41
2022-12-26T02:21:18.073Z,3.41
2022-12-26T02:22:18.086Z,3.42
2022-12-26T02:23:18.031Z,3.41
2022-12-26T02:24:18.049Z,3.41
2022-12-26T02:25:18.016Z,3.41
2022-12-26T02:26:18.028Z,3.37
2022-12-26T02:27:17.997Z,3.41
2022-12-26T02:28:18.000Z,3.41
2022-12-26T02:29:17.955Z,3.42
2022-12-26T02:30:17.982Z,3.42
2022-12-26T02:31:18.107Z,3.44
2022-12-26T02:32:17.932Z,3.45
2022-12-26T02:33:17.900Z,3.44
2022-12-26T02:34:17.931Z,3.42
2022-12-26T02:35:17.906Z,3.41
2022-12-26T02:36:17.888Z,3.41
2022-12-26T02:37:17.865Z,3.36
2022-12-26T02:38:17.835Z,3.36
2022-12-26T02:39:44.650Z,3.34
2022-12-26T02:40:17.870Z,3.32
2022-12-26T02:41:17.788Z,3.29
2022-12-26T02:42:17.809Z,3.26
2022-12-26T02:43:17.768Z,3.25
2022-12-26T02:44:17.761Z,3.25
2022-12-26T02:45:17.769Z,3.21
2022-12-26T02:46:17.819Z,3.21
2022-12-26T02:47:17.748Z,3.21
2022-12-26T02:48:17.731Z,3.21
2022-12-26T02:49:17.694Z,3.22
2022-12-26T02:50:17.682Z,3.21
2022-12-26T02:51:17.678Z,3.18
2022-12-26T02:52:17.670Z,3.18
2022-12-26T02:53:17.654Z,3.10
2022-12-26T02:54:17.653Z,3.07
2022-12-26T02:55:17.614Z,3.07
2022-12-26T02:56:17.612Z,3.03
2022-12-26T02:57:17.611Z,3.03
2022-12-26T02:58:17.590Z,3.04
2022-12-26T02:59:17.563Z,3.04
2022-12-26T03:00:17.552Z,3.03
2022-12-26T03:01:17.748Z,3.04
2022-12-26T03:02:17.753Z,3.04
2022-12-26T03:03:17.584Z,3.01
2022-12-26T03:04:17.530Z,3.01
2022-12-26T03:05:17.517Z,3.01
2022-12-26T03:06:17.491Z,3.01
2022-12-26T03:07:17.460Z,2.98
2022-12-26T03:08:17.447Z,2.97
2022-12-26T03:09:17.443Z,2.95
2022-12-26T03:10:17.410Z,2.92
2022-12-26T03:11:17.464Z,2.93
2022-12-26T03:12:17.391Z,2.93
2022-12-26T03:13:17.379Z,2.95
2022-12-26T03:14:17.384Z,2.95
2022-12-26T03:15:17.369Z,2.93
2022-12-26T03:16:17.429Z,2.93
2022-12-26T03:17:17.355Z,2.92
2022-12-26T03:18:17.322Z,2.93
2022-12-26T03:19:17.301Z,2.97
2022-12-26T03:20:17.315Z,2.98
2022-12-26T03:21:17.288Z,2.95
2022-12-26T03:22:17.265Z,2.97
2022-12-26T03:23:17.268Z,2.97
2022-12-26T03:24:17.251Z,2.98
2022-12-26T03:25:17.210Z,3.00
2022-12-26T03:26:17.210Z,2.98
2022-12-26T03:27:17.192Z,2.98
2022-12-26T03:28:17.210Z,2.98
2022-12-26T03:29:19.047Z,2.97
2022-12-26T03:30:17.167Z,2.90
2022-12-26T03:31:17.231Z,2.90
2022-12-26T03:32:17.158Z,2.89
2022-12-26T03:33:17.112Z,2.92
2022-12-26T03:34:17.149Z,2.92
2022-12-26T03:35:17.092Z,2.93
2022-12-26T03:36:17.091Z,2.95
2022-12-26T03:37:17.116Z,2.97
2022-12-26T03:38:17.056Z,3.00
2022-12-26T03:39:17.048Z,2.98
2022-12-26T03:40:17.038Z,3.00
2022-12-26T03:41:17.039Z,3.01
2022-12-26T03:42:17.006Z,3.03
2022-12-26T03:43:16.981Z,3.03
2022-12-26T03:44:17.009Z,3.03
2022-12-26T03:45:16.951Z,3.01
2022-12-26T03:46:17.095Z,3.00
2022-12-26T03:47:16.947Z,3.03
2022-12-26T03:48:16.921Z,3.01
2022-12-26T03:49:16.958Z,3.04
2022-12-26T03:50:16.905Z,3.08
2022-12-26T03:51:16.871Z,3.13
2022-12-26T03:52:16.878Z,3.16
2022-12-26T03:53:16.853Z,3.16
2022-12-26T03:54:16.873Z,3.21
2022-12-26T03:55:16.824Z,3.21
2022-12-26T03:56:16.820Z,3.22
2022-12-26T03:57:16.826Z,3.23
2022-12-26T03:58:16.833Z,3.25
2022-12-26T03:59:16.834Z,3.25
2022-12-26T04:00:16.777Z,3.25
2022-12-26T04:01:16.902Z,3.23
2022-12-26T04:02:16.870Z,3.21
2022-12-26T04:03:16.749Z,3.21
2022-12-26T04:04:16.756Z,3.21
2022-12-26T04:05:16.701Z,3.19
2022-12-26T04:06:16.698Z,3.16
2022-12-26T04:07:16.665Z,3.13
2022-12-26T04:08:19.146Z,3.13
2022-12-26T04:09:16.692Z,3.14
2022-12-26T04:10:16.648Z,3.13
2022-12-26T04:11:16.630Z,3.11
2022-12-26T04:12:16.637Z,3.11
2022-12-26T04:13:16.609Z,3.10
2022-12-26T04:14:16.600Z,3.08
2022-12-26T04:15:16.576Z,3.08
2022-12-26T04:16:16.665Z,3.07
2022-12-26T04:17:16.545Z,3.04
2022-12-26T04:18:16.541Z,3.00
2022-12-26T04:19:16.529Z,2.95
2022-12-26T04:20:16.574Z,2.97
2022-12-26T04:21:16.520Z,2.98
2022-12-26T04:22:16.501Z,2.97
2022-12-26T04:23:16.462Z,2.95
2022-12-26T04:24:16.478Z,2.98
2022-12-26T04:25:16.443Z,2.97
2022-12-26T04:26:16.443Z,3.01
2022-12-26T04:27:16.440Z,3.00
2022-12-26T04:28:16.431Z,3.01
2022-12-26T04:29:16.412Z,2.98
2022-12-26T04:30:16.375Z,2.95
2022-12-26T04:31:16.411Z,2.93
2022-12-26T04:32:16.383Z,2.92
2022-12-26T04:33:16.368Z,2.93
2022-12-26T04:34:16.337Z,2.90
2022-12-26T04:35:16.308Z,2.90
2022-12-26T04:36:16.298Z,2.87
2022-12-26T04:37:16.273Z,2.86
2022-12-26T04:38:16.296Z,2.87
2022-12-26T04:39:16.239Z,2.86
2022-12-26T04:40:16.286Z,2.85
2022-12-26T04:41:16.242Z,2.83
2022-12-26T04:42:16.236Z,2.85
2022-12-26T04:43:48.648Z,2.82
2022-12-26T04:44:16.198Z,2.77
2022-12-26T04:45:16.216Z,2.75
2022-12-26T04:46:16.253Z,2.75
2022-12-26T04:47:16.152Z,2.75
2022-12-26T04:48:16.135Z,2.75
2022-12-26T04:49:16.137Z,2.74
2022-12-26T04:50:16.107Z,2.71
2022-12-26T04:51:16.112Z,2.67
2022-12-26T04:52:16.087Z,2.62
2022-12-26T04:53:16.066Z,2.57
2022-12-26T04:54:16.097Z,2.56
2022-12-26T04:55:16.043Z,2.56
2022-12-26T04:56:16.033Z,2.54
2022-12-26T04:57:16.024Z,2.54
2022-12-26T04:58:16.012Z,2.54
2022-12-26T04:59:16.018Z,2.57
2022-12-26T05:00:15.977Z,2.60
2022-12-26T05:01:16.100Z,2.60
2022-12-26T05:02:16.156Z,2.61
2022-12-26T05:03:19.149Z,2.60
2022-12-26T05:04:15.935Z,2.60
2022-12-26T05:05:15.908Z,2.61
2022-12-26T05:06:15.918Z,2.60
2022-12-26T05:07:15.919Z,2.61
2022-12-26T05:08:15.878Z,2.62
2022-12-26T05:09:15.863Z,2.62
2022-12-26T05:10:15.868Z,2.62
2022-12-26T05:11:15.868Z,2.64
2022-12-26T05:12:15.826Z,2.61
2022-12-26T05:13:15.798Z,2.64
2022-12-26T05:14:15.790Z,2.62
2022-12-26T05:15:15.781Z,2.61
2022-12-26T05:16:15.884Z,2.61
2022-12-26T05:17:15.758Z,2.60
2022-12-26T05:18:15.752Z,2.61
2022-12-26T05:19:15.751Z,2.57
2022-12-26T05:20:15.746Z,2.57
2022-12-26T05:21:15.698Z,2.56
2022-12-26T05:22:15.701Z,2.56
2022-12-26T05:23:15.670Z,2.57
2022-12-26T05:24:15.671Z,2.60
2022-12-26T05:25:15.679Z,2.57
2022-12-26T05:26:15.669Z,2.57
2022-12-26T05:27:15.622Z,2.56
2022-12-26T05:28:15.625Z,2.56
2022-12-26T05:29:15.603Z,2.54
2022-12-26T05:30:15.616Z,2.56
2022-12-26T05:31:15.640Z,2.54
2022-12-26T05:32:15.558Z,2.53
2022-12-26T05:33:15.541Z,2.50
2022-12-26T05:34:15.536Z,2.47
2022-12-26T05:35:15.531Z,2.46
2022-12-26T05:36:15.542Z,2.47
2022-12-26T05:37:15.556Z,2.46
2022-12-26T05:38:15.495Z,2.46
2022-12-26T05:39:15.464Z,2.44
2022-12-26T05:40:15.460Z,2.46
2022-12-26T05:41:15.461Z,2.49
2022-12-26T05:42:15.441Z,2.46
2022-12-26T05:43:15.418Z,2.43
2022-12-26T05:44:15.431Z,2.43
2022-12-26T05:45:15.394Z,2.39
2022-12-26T05:46:15.424Z,2.42
2022-12-26T05:47:15.379Z,2.38
2022-12-26T05:48:15.361Z,2.38
2022-12-26T05:49:15.368Z,2.36
2022-12-26T05:50:15.327Z,2.35
2022-12-26T05:51:15.310Z,2.33
2022-12-26T05:52:15.343Z,2.32
2022-12-26T05:53:15.290Z,2.33
2022-12-26T05:54:15.281Z,2.33
2022-12-26T05:55:15.287Z,2.35
2022-12-26T05:56:15.605Z,2.32
2022-12-26T05:57:15.229Z,2.32
2022-12-26T05:58:15.235Z,2.32
2022-12-26T05:59:15.211Z,2.31
2022-12-26T06:00:15.219Z,2.28
2022-12-26T06:01:15.207Z,2.26
2022-12-26T06:02:15.374Z,2.29
2022-12-26T06:03:15.409Z,2.28
2022-12-26T06:04:15.157Z,2.29
2022-12-26T06:05:15.123Z,2.31
2022-12-26T06:06:15.138Z,2.29
2022-12-26T06:07:15.127Z,2.31
2022-12-26T06:08:15.128Z,2.29
2022-12-26T06:09:15.083Z,2.31
2022-12-26T06:10:15.088Z,2.31
2022-12-26T06:11:15.041Z,2.31
2022-12-26T06:12:15.037Z,2.29
2022-12-26T06:13:15.060Z,2.31
2022-12-26T06:14:15.030Z,2.31
2022-12-26T06:15:15.013Z,2.32
2022-12-26T06:16:15.059Z,2.32
2022-12-26T06:17:14.984Z,2.32
2022-12-26T06:18:14.964Z,2.32
2022-12-26T06:19:14.972Z,2.29
2022-12-26T06:20:14.960Z,2.31
2022-12-26T06:21:14.946Z,2.32
2022-12-26T06:22:14.922Z,2.35
2022-12-26T06:23:14.925Z,2.36
2022-12-26T06:24:14.921Z,2.38
2022-12-26T06:25:14.874Z,2.38
2022-12-26T06:26:14.875Z,2.38
2022-12-26T06:27:14.845Z,2.39
2022-12-26T06:28:14.821Z,2.36
2022-12-26T06:29:14.853Z,2.33
2022-12-26T06:30:14.801Z,2.32
2022-12-26T06:31:14.911Z,2.35
2022-12-26T06:32:14.810Z,2.33
2022-12-26T06:33:14.780Z,2.33
2022-12-26T06:34:14.754Z,2.32
2022-12-26T06:35:14.741Z,2.29
2022-12-26T06:36:14.752Z,2.28
2022-12-26T06:37:14.722Z,2.28
2022-12-26T06:38:14.706Z,2.25
2022-12-26T06:39:14.700Z,2.24
2022-12-26T06:40:14.707Z,2.20
2022-12-26T06:41:14.691Z,2.17
2022-12-26T06:42:14.778Z,2.15
2022-12-26T06:43:14.648Z,2.15
2022-12-26T06:44:18.469Z,2.15
2022-12-26T06:45:14.618Z,2.14
2022-12-26T06:46:14.659Z,2.15
2022-12-26T06:47:14.654Z,2.15
2022-12-26T06:48:14.636Z,2.15
2022-12-26T06:49:14.586Z,2.15
2022-12-26T06:50:14.552Z,2.17
2022-12-26T06:51:14.579Z,2.17
2022-12-26T06:52:14.556Z,2.17
2022-12-26T06:53:14.533Z,2.17
2022-12-26T06:54:14.494Z,2.15
2022-12-26T06:55:14.481Z,2.14
2022-12-26T06:56:14.477Z,2.14
2022-12-26T06:57:14.462Z,2.14
2022-12-26T06:58:14.454Z,2.15
2022-12-26T06:59:14.440Z,2.15
2022-12-26T07:00:14.407Z,2.15
2022-12-26T07:01:14.523Z,2.13
2022-12-26T07:02:14.487Z,2.11
2022-12-26T07:03:14.443Z,2.08
2022-12-26T07:04:14.393Z,2.07
2022-12-26T07:05:14.357Z,2.06
2022-12-26T07:06:14.325Z,2.06
2022-12-26T07:07:14.354Z,2.04
2022-12-26T07:08:14.304Z,2.04
2022-12-26T07:09:14.341Z,2.06
2022-12-26T07:10:14.291Z,2.06
2022-12-26T07:11:14.303Z,2.04
2022-12-26T07:12:14.271Z,2.06
2022-12-26T07:13:14.280Z,2.04
2022-12-26T07:14:14.227Z,2.04
2022-12-26T07:15:14.224Z,2.04
2022-12-26T07:16:14.339Z,2.02
2022-12-26T07:17:14.208Z,2.02
2022-12-26T07:18:14.232Z,2.00
2022-12-26T07:19:14.195Z,2.00
2022-12-26T07:20:14.153Z,2.02
2022-12-26T07:21:14.173Z,1.99
2022-12-26T07:22:14.132Z,1.99
2022-12-26T07:23:14.157Z,2.02
2022-12-26T07:24:14.131Z,2.08
2022-12-26T07:25:14.117Z,2.07
2022-12-26T07:26:14.057Z,2.06
2022-12-26T07:27:14.066Z,2.08
2022-12-26T07:28:14.039Z,2.08
2022-12-26T07:29:14.031Z,2.06
2022-12-26T07:30:14.063Z,2.07
2022-12-26T07:31:14.055Z,2.08
2022-12-26T07:32:14.201Z,2.10
2022-12-26T07:33:13.986Z,2.10
2022-12-26T07:34:13.983Z,2.08
2022-12-26T07:35:13.962Z,2.11
2022-12-26T07:36:13.965Z,2.11
2022-12-26T07:37:13.938Z,2.11
2022-12-26T07:38:13.906Z,2.13
2022-12-26T07:39:13.941Z,2.13
2022-12-26T07:40:13.911Z,2.14
2022-12-26T07:41:13.897Z,2.14
2022-12-26T07:42:13.915Z,2.17
2022-12-26T07:43:13.852Z,2.18
2022-12-26T07:44:13.837Z,2.22
2022-12-26T07:45:13.826Z,2.20
2022-12-26T07:46:13.856Z,2.24
2022-12-26T07:47:13.850Z,2.24
2022-12-26T07:48:13.779Z,2.25
2022-12-26T07:49:13.776Z,2.25
2022-12-26T07:50:13.763Z,2.26
2022-12-26T07:51:13.758Z,2.26
2022-12-26T07:52:13.764Z,2.28
2022-12-26T07:53:13.729Z,2.28
2022-12-26T07:54:13.708Z,2.29
2022-12-26T07:55:13.692Z,2.31
2022-12-26T07:56:13.693Z,2.31
2022-12-26T07:57:46.884Z,2.32
2022-12-26T07:58:13.654Z,2.31
2022-12-26T07:59:13.641Z,2.32
2022-12-26T08:00:13.647Z,2.35
2022-12-26T08:01:13.745Z,2.42
2022-12-26T08:02:13.868Z,2.44
2022-12-26T08:03:13.771Z,2.50
2022-12-26T08:04:13.570Z,2.60
2022-12-26T08:05:13.588Z,2.65
2022-12-26T08:06:13.553Z,2.74
2022-12-26T08:07:13.543Z,2.83
2022-12-26T08:08:13.544Z,2.89
2022-12-26T08:09:13.543Z,2.92
2022-12-26T08:10:13.500Z,2.93
2022-12-26T08:11:13.520Z,3.00
2022-12-26T08:12:13.472Z,3.07
2022-12-26T08:13:13.474Z,3.14
2022-12-26T08:14:13.479Z,3.23
2022-12-26T08:15:13.431Z,3.26
2022-12-26T08:16:13.500Z,3.32
2022-12-26T08:17:13.511Z,3.41
2022-12-26T08:18:13.426Z,3.47
2022-12-26T08:19:13.385Z,3.55
2022-12-26T08:20:13.372Z,3.63
2022-12-26T08:21:13.399Z,3.69
2022-12-26T08:22:13.342Z,3.77
2022-12-26T08:23:13.354Z,3.87
2022-12-26T08:24:13.310Z,3.96
2022-12-26T08:25:15.506Z,3.99
2022-12-26T08:26:13.318Z,4.10
2022-12-26T08:27:13.273Z,4.12
2022-12-26T08:28:13.299Z,4.13
2022-12-26T08:29:13.255Z,4.10
2022-12-26T08:30:13.230Z,4.12
2022-12-26T08:31:13.220Z,4.12
2022-12-26T08:32:13.233Z,4.14
2022-12-26T08:33:13.214Z,4.17
2022-12-26T08:34:13.177Z,4.22
2022-12-26T08:35:13.181Z,4.26
2022-12-26T08:36:13.155Z,4.30
2022-12-26T08:37:13.168Z,4.32
2022-12-26T08:38:13.136Z,4.35
2022-12-26T08:39:13.139Z,4.44
2022-12-26T08:40:15.534Z,4.55
2022-12-26T08:41:13.116Z,4.66
2022-12-26T08:42:13.102Z,4.74
2022-12-26T08:43:32.122Z,4.78
2022-12-26T08:44:29.218Z,4.87
2022-12-26T08:45:13.043Z,4.89
2022-12-26T08:46:13.101Z,4.90
2022-12-26T08:47:13.015Z,4.87
2022-12-26T08:48:13.033Z,4.84
2022-12-26T08:49:13.019Z,4.82
2022-12-26T08:50:13.068Z,4.86
2022-12-26T08:51:12.964Z,4.90
2022-12-26T08:52:12.953Z,4.93
2022-12-26T08:53:12.952Z,5.00
2022-12-26T08:54:12.941Z,5.07
2022-12-26T08:55:12.911Z,5.14
2022-12-26T08:56:12.889Z,5.20
2022-12-26T08:57:12.887Z,5.28
2022-12-26T08:58:12.916Z,5.36
2022-12-26T08:59:12.881Z,5.39
2022-12-26T09:00:12.847Z,5.46
2022-12-26T09:01:13.002Z,5.51
2022-12-26T09:02:13.013Z,5.64
2022-12-26T09:03:12.831Z,5.73
2022-12-26T09:04:12.820Z,5.84
2022-12-26T09:05:12.778Z,5.97
2022-12-26T09:06:12.760Z,6.07
2022-12-26T09:07:12.749Z,6.09
2022-12-26T09:08:12.726Z,6.12
2022-12-26T09:09:12.788Z,6.08
2022-12-26T09:10:12.705Z,6.04
2022-12-26T09:11:12.700Z,5.98
2022-12-26T09:12:12.674Z,5.97
2022-12-26T09:13:12.682Z,5.93
2022-12-26T09:14:12.676Z,5.98
2022-12-26T09:15:12.651Z,6.07
2022-12-26T09:16:12.640Z,6.11
2022-12-26T09:17:12.729Z,6.26
2022-12-26T09:18:12.596Z,6.48
2022-12-26T09:19:12.622Z,6.70
2022-12-26T09:20:12.567Z,6.85
2022-12-26T09:21:12.586Z,7.00
2022-12-26T09:22:12.548Z,7.18
2022-12-26T09:23:12.537Z,7.32
2022-12-26T09:24:12.537Z,7.31
2022-12-26T09:25:12.537Z,7.21
2022-12-26T09:26:12.495Z,7.15
2022-12-26T09:27:12.515Z,7.15
2022-12-26T09:28:12.459Z,7.20
2022-12-26T09:29:12.498Z,7.18
2022-12-26T09:30:12.496Z,7.17
2022-12-26T09:31:12.518Z,7.06
2022-12-26T09:32:12.438Z,6.95
2022-12-26T09:33:12.408Z,6.87
2022-12-26T09:34:12.390Z,6.79
2022-12-26T09:35:12.406Z,6.70
2022-12-26T09:36:14.871Z,6.63
2022-12-26T09:37:12.371Z,6.60
2022-12-26T09:38:12.333Z,6.54
2022-12-26T09:39:12.322Z,6.48
2022-12-26T09:40:12.328Z,6.48
2022-12-26T09:41:12.426Z,6.48
2022-12-26T09:42:12.290Z,6.48
2022-12-26T09:43:12.304Z,6.49
2022-12-26T09:44:12.300Z,6.48
2022-12-26T09:45:12.251Z,6.48
2022-12-26T09:46:12.291Z,6.49
2022-12-26T09:47:12.285Z,6.46
2022-12-26T09:48:12.204Z,6.42
2022-12-26T09:49:12.196Z,6.38
2022-12-26T09:50:12.175Z,6.36
2022-12-26T09:51:12.159Z,6.31
2022-12-26T09:52:12.174Z,6.27
2022-12-26T09:53:12.169Z,6.24
2022-12-26T09:54:12.135Z,6.24
2022-12-26T09:55:12.120Z,6.27
2022-12-26T09:56:23.647Z,6.35
2022-12-26T09:57:15.025Z,6.41
2022-12-26T09:58:12.100Z,6.48
2022-12-26T09:59:12.063Z,6.59
2022-12-26T10:00:12.070Z,6.67
2022-12-26T10:01:12.253Z,6.75
2022-12-26T10:02:12.119Z,6.84
2022-12-26T10:03:12.028Z,6.96
2022-12-26T10:04:12.033Z,7.03
2022-12-26T10:05:11.971Z,7.14
2022-12-26T10:06:11.970Z,7.18
2022-12-26T10:07:11.961Z,7.25
2022-12-26T10:08:11.932Z,7.38
2022-12-26T10:09:11.985Z,7.57
2022-12-26T10:10:11.928Z,7.77
2022-12-26T10:11:11.907Z,7.91
2022-12-26T10:12:11.914Z,8.08
2022-12-26T10:13:11.868Z,8.24
2022-12-26T10:14:16.452Z,8.44
2022-12-26T10:15:11.857Z,8.60
2022-12-26T10:16:11.884Z,8.81
2022-12-26T10:17:11.854Z,8.95
2022-12-26T10:18:11.799Z,9.06
2022-12-26T10:19:11.799Z,9.19
2022-12-26T10:20:11.808Z,9.29
2022-12-26T10:21:11.764Z,9.37
2022-12-26T10:22:11.786Z,9.44
2022-12-26T10:23:11.731Z,9.48
2022-12-26T10:24:11.762Z,9.54
2022-12-26T10:25:11.696Z,9.59
2022-12-26T10:26:11.727Z,9.65
2022-12-26T10:27:11.682Z,9.58
2022-12-26T10:28:11.726Z,9.55
2022-12-26T10:29:11.674Z,9.54
2022-12-26T10:30:11.640Z,9.50
2022-12-26T10:31:11.712Z,9.47
2022-12-26T10:32:11.611Z,9.56
2022-12-26T10:33:11.598Z,9.61
2022-12-26T10:34:11.591Z,9.72
2022-12-26T10:35:11.596Z,9.83
2022-12-26T10:36:11.615Z,10.01
2022-12-26T10:37:11.544Z,10.19
2022-12-26T10:38:11.574Z,10.34
2022-12-26T10:39:11.538Z,10.42
2022-12-26T10:40:11.554Z,10.57
2022-12-26T10:41:11.517Z,10.71
2022-12-26T10:42:11.545Z,10.89
2022-12-26T10:43:11.474Z,10.97
2022-12-26T10:44:11.539Z,11.04
2022-12-26T10:45:11.497Z,11.14
2022-12-26T10:46:11.472Z,11.25
2022-12-26T10:47:11.443Z,11.40
2022-12-26T10:48:11.433Z,11.40
2022-12-26T10:49:11.377Z,11.41
2022-12-26T10:50:11.414Z,11.52
2022-12-26T10:51:11.361Z,11.70
2022-12-26T10:52:11.355Z,11.91
2022-12-26T10:53:11.342Z,12.15
2022-12-26T10:54:11.352Z,12.36
2022-12-26T10:55:29.542Z,12.58
2022-12-26T10:56:16.345Z,12.72
2022-12-26T10:57:11.301Z,12.78
2022-12-26T10:58:11.271Z,12.83
2022-12-26T10:59:11.282Z,12.87
2022-12-26T11:00:11.259Z,12.93
2022-12-26T11:01:11.280Z,12.91
2022-12-26T11:02:11.367Z,12.95
2022-12-26T11:03:11.443Z,12.93
2022-12-26T11:04:11.197Z,12.93
2022-12-26T11:05:21.949Z,12.97
2022-12-26T11:06:11.192Z,13.04
2022-12-26T11:07:11.151Z,13.03
2022-12-26T11:08:11.162Z,13.08
2022-12-26T11:09:11.121Z,13.08
2022-12-26T11:10:11.140Z,13.27
2022-12-26T11:11:11.124Z,13.50
2022-12-26T11:12:11.089Z,13.59
2022-12-26T11:13:11.102Z,13.54
2022-12-26T11:14:11.080Z,13.63
2022-12-26T11:15:11.039Z,13.59
2022-12-26T11:16:11.170Z,13.49
2022-12-26T11:17:11.006Z,13.56
2022-12-26T11:18:11.006Z,13.49
2022-12-26T11:19:11.002Z,13.41
2022-12-26T11:20:11.011Z,13.50
2022-12-26T11:21:12.744Z,13.65
2022-12-26T11:22:10.994Z,13.85
2022-12-26T11:23:10.925Z,13.72
2022-12-26T11:24:10.963Z,13.49
2022-12-26T11:25:10.911Z,13.38
2022-12-26T11:26:10.899Z,13.46
2022-12-26T11:27:12.835Z,13.72
2022-12-26T11:28:10.930Z,14.03
2022-12-26T11:29:10.854Z,14.32
2022-12-26T11:30:10.873Z,14.54
2022-12-26T11:31:10.905Z,14.62
2022-12-26T11:32:10.826Z,14.81
2022-12-26T11:33:14.648Z,14.99
2022-12-26T11:34:10.863Z,15.22
2022-12-26T11:35:10.776Z,15.51
2022-12-26T11:36:10.761Z,15.73
2022-12-26T11:37:10.762Z,15.84
2022-12-26T11:38:10.784Z,15.86
2022-12-26T11:39:10.723Z,15.73
2022-12-26T11:40:10.719Z,15.61
2022-12-26T11:41:10.736Z,15.49
2022-12-26T11:42:10.684Z,15.24
2022-12-26T11:43:10.738Z,15.06
2022-12-26T11:44:10.657Z,14.79
2022-12-26T11:45:10.632Z,14.59
2022-12-26T11:46:10.678Z,14.35
2022-12-26T11:47:10.609Z,14.37
2022-12-26T11:48:10.607Z,14.22
2022-12-26T11:49:10.590Z,13.93
2022-12-26T11:50:10.607Z,13.75
2022-12-26T11:51:10.556Z,13.68
2022-12-26T11:52:10.549Z,13.60
2022-12-26T11:53:10.527Z,13.41
2022-12-26T11:54:10.537Z,13.19
2022-12-26T11:55:10.532Z,13.15
2022-12-26T11:56:10.489Z,13.37
2022-12-26T11:57:10.470Z,13.33
2022-12-26T11:58:10.499Z,13.37
2022-12-26T11:59:10.454Z,13.47
2022-12-26T12:00:10.465Z,13.67
2022-12-26T12:01:10.454Z,13.70
2022-12-26T12:02:10.443Z,13.68
2022-12-26T12:03:10.406Z,13.65
2022-12-26T12:04:10.392Z,13.65
2022-12-26T12:05:10.371Z,13.74
2022-12-26T12:06:10.393Z,13.86
2022-12-26T12:07:10.340Z,13.86
2022-12-26T12:08:10.333Z,13.77
2022-12-26T12:09:10.317Z,13.74
2022-12-26T12:10:10.330Z,13.72
2022-12-26T12:11:10.304Z,13.68
2022-12-26T12:12:10.294Z,13.60
2022-12-26T12:13:10.302Z,13.62
2022-12-26T12:14:10.253Z,13.75
2022-12-26T12:15:10.238Z,13.75
2022-12-26T12:16:10.253Z,13.71
2022-12-26T12:17:10.234Z,13.70
2022-12-26T12:18:10.221Z,13.63
2022-12-26T12:19:10.199Z,13.57
2022-12-26T12:20:10.203Z,13.59
2022-12-26T12:21:10.148Z,13.62
2022-12-26T12:22:10.187Z,13.63
2022-12-26T12:23:10.121Z,13.60
2022-12-26T12:24:10.121Z,13.57
2022-12-26T12:25:10.090Z,13.57
2022-12-26T12:26:10.090Z,13.54
2022-12-26T12:27:10.092Z,13.49
2022-12-26T12:28:10.054Z,13.47
2022-12-26T12:29:10.042Z,13.42
2022-12-26T12:30:10.042Z,13.28
2022-12-26T12:31:10.056Z,13.00
2022-12-26T12:32:10.400Z,12.80
2022-12-26T12:33:09.994Z,12.64
2022-12-26T12:34:09.987Z,12.43
2022-12-26T12:35:09.975Z,12.24
2022-12-26T12:36:09.969Z,12.07
2022-12-26T12:37:09.933Z,12.06
2022-12-26T12:38:09.931Z,12.04
2022-12-26T12:39:09.897Z,12.02
2022-12-26T12:40:09.941Z,11.91
2022-12-26T12:41:09.885Z,11.83
2022-12-26T12:42:09.884Z,11.69
2022-12-26T12:43:09.845Z,11.63
2022-12-26T12:44:09.873Z,11.57
2022-12-26T12:45:09.836Z,11.54
2022-12-26T12:46:09.884Z,11.48
2022-12-26T12:47:09.818Z,11.43
2022-12-26T12:48:09.819Z,11.41
2022-12-26T12:49:09.769Z,11.37
2022-12-26T12:50:09.796Z,11.36
2022-12-26T12:51:09.741Z,11.35
2022-12-26T12:52:09.784Z,11.36
2022-12-26T12:53:09.727Z,11.36
2022-12-26T12:54:09.726Z,11.37
2022-12-26T12:55:09.702Z,11.36
2022-12-26T12:56:09.686Z,11.33
2022-12-26T12:57:09.694Z,11.32
2022-12-26T12:58:09.667Z,11.32
2022-12-26T12:59:09.650Z,11.32
2022-12-26T13:00:09.634Z,11.30
2022-12-26T13:01:09.720Z,11.23
2022-12-26T13:02:12.788Z,11.17
2022-12-26T13:03:09.655Z,11.12
2022-12-26T13:04:09.577Z,10.99
2022-12-26T13:05:09.573Z,10.89
2022-12-26T13:06:09.589Z,10.82
2022-12-26T13:07:09.561Z,10.82
2022-12-26T13:08:09.546Z,10.79
2022-12-26T13:09:09.502Z,10.79
2022-12-26T13:10:09.546Z,10.82
2022-12-26T13:11:09.475Z,10.86
2022-12-26T13:12:09.502Z,10.87
2022-12-26T13:13:09.473Z,10.87
2022-12-26T13:14:09.458Z,10.87
2022-12-26T13:15:09.422Z,10.81
2022-12-26T13:16:09.518Z,10.79
2022-12-26T13:17:09.441Z,10.78